sensor_id;sensor_type;location;lat;lon;timestamp;P1;durP1;ratioP1;P2;durP2;ratioP2
5807;SDS011;2930;42.678;23.312;2023-05-07T00:02:23;2.67;;;2.47;;
5807;SDS011;2930;42.678;23.312;2023-05-07T00:04:50;2.67;;;2.42;;
5807;SDS011;2930;42.678;23.312;2023-05-07T00:07:17;3.58;;;2.85;;
5807;SDS011;2930;42.678;23.312;2023-05-07T00:09:42;3.13;;;2.47;;
5807;SDS011;2930;42.678;23.312;2023-05-07T00:12:08;2.60;;;2.40;;
5807;SDS011;2930;42.678;23.312;2023-05-07T00:14:34;2.45;;;2.30;;
5807;SDS011;2930;42.678;23.312;2023-05-07T00:16:59;3.92;;;2.33;;
5807;SDS011;2930;42.678;23.312;2023-05-07T00:19:25;2.63;;;2.42;;
5807;SDS011;2930;42.678;23.312;2023-05-07T00:21:51;2.22;;;2.10;;
5807;SDS011;2930;42.678;23.312;2023-05-07T00:24:18;2.85;;;2.17;;
5807;SDS011;2930;42.678;23.312;2023-05-07T00:26:44;2.17;;;2.05;;
5807;SDS011;2930;42.678;23.312;2023-05-07T00:29:09;1.98;;;1.88;;
5807;SDS011;2930;42.678;23.312;2023-05-07T00:31:35;3.90;;;2.22;;
5807;SDS011;2930;42.678;23.312;2023-05-07T00:34:01;1.92;;;1.83;;
5807;SDS011;2930;42.678;23.312;2023-05-07T00:36:26;5.72;;;2.05;;
5807;SDS011;2930;42.678;23.312;2023-05-07T00:38:53;1.98;;;1.88;;
5807;SDS011;2930;42.678;23.312;2023-05-07T00:41:19;2.22;;;1.85;;
5807;SDS011;2930;42.678;23.312;2023-05-07T00:43:45;3.08;;;2.30;;
5807;SDS011;2930;42.678;23.312;2023-05-07T00:46:10;2.30;;;1.90;;
5807;SDS011;2930;42.678;23.312;2023-05-07T00:48:37;2.25;;;2.15;;
5807;SDS011;2930;42.678;23.312;2023-05-07T00:51:03;2.70;;;2.50;;
5807;SDS011;2930;42.678;23.312;2023-05-07T00:53:29;3.03;;;2.10;;
5807;SDS011;2930;42.678;23.312;2023-05-07T00:55:55;2.65;;;2.20;;
5807;SDS011;2930;42.678;23.312;2023-05-07T00:58:21;3.20;;;2.17;;
5807;SDS011;2930;42.678;23.312;2023-05-07T01:00:48;2.22;;;2.03;;
5807;SDS011;2930;42.678;23.312;2023-05-07T01:03:14;2.15;;;2.03;;
5807;SDS011;2930;42.678;23.312;2023-05-07T01:05:39;2.80;;;2.60;;
5807;SDS011;2930;42.678;23.312;2023-05-07T01:08:07;2.58;;;2.42;;
5807;SDS011;2930;42.678;23.312;2023-05-07T01:10:33;2.25;;;2.10;;
5807;SDS011;2930;42.678;23.312;2023-05-07T01:12:59;2.63;;;2.08;;
5807;SDS011;2930;42.678;23.312;2023-05-07T01:15:25;2.28;;;2.08;;
5807;SDS011;2930;42.678;23.312;2023-05-07T01:17:51;4.18;;;2.33;;
5807;SDS011;2930;42.678;23.312;2023-05-07T01:20:17;2.20;;;1.77;;
5807;SDS011;2930;42.678;23.312;2023-05-07T01:22:43;5.28;;;2.15;;
5807;SDS011;2930;42.678;23.312;2023-05-07T01:25:09;2.15;;;2.05;;
5807;SDS011;2930;42.678;23.312;2023-05-07T01:27:35;1.67;;;1.58;;
5807;SDS011;2930;42.678;23.312;2023-05-07T01:30:05;2.13;;;2.03;;
5807;SDS011;2930;42.678;23.312;2023-05-07T01:32:42;4.38;;;1.88;;
5807;SDS011;2930;42.678;23.312;2023-05-07T01:35:13;2.13;;;1.80;;
5807;SDS011;2930;42.678;23.312;2023-05-07T01:37:43;2.15;;;2.05;;
5807;SDS011;2930;42.678;23.312;2023-05-07T01:40:10;2.00;;;1.83;;
5807;SDS011;2930;42.678;23.312;2023-05-07T01:42:36;1.60;;;1.60;;
5807;SDS011;2930;42.678;23.312;2023-05-07T01:45:02;2.00;;;1.90;;
5807;SDS011;2930;42.678;23.312;2023-05-07T01:47:28;1.88;;;1.77;;
5807;SDS011;2930;42.678;23.312;2023-05-07T01:49:54;2.47;;;2.05;;
5807;SDS011;2930;42.678;23.312;2023-05-07T01:52:20;1.73;;;1.65;;
5807;SDS011;2930;42.678;23.312;2023-05-07T01:54:46;1.10;;;1.10;;
5807;SDS011;2930;42.678;23.312;2023-05-07T01:57:12;1.50;;;1.40;;
5807;SDS011;2930;42.678;23.312;2023-05-07T01:59:38;1.67;;;1.58;;
5807;SDS011;2930;42.678;23.312;2023-05-07T02:02:03;1.25;;;1.20;;
5807;SDS011;2930;42.678;23.312;2023-05-07T02:04:29;3.80;;;1.70;;
5807;SDS011;2930;42.678;23.312;2023-05-07T02:06:55;1.52;;;1.40;;
5807;SDS011;2930;42.678;23.312;2023-05-07T02:09:20;1.50;;;1.50;;
5807;SDS011;2930;42.678;23.312;2023-05-07T02:11:47;1.30;;;1.30;;
5807;SDS011;2930;42.678;23.312;2023-05-07T02:14:13;1.50;;;1.50;;
5807;SDS011;2930;42.678;23.312;2023-05-07T02:16:39;1.38;;;1.30;;
5807;SDS011;2930;42.678;23.312;2023-05-07T02:19:05;1.38;;;1.38;;
5807;SDS011;2930;42.678;23.312;2023-05-07T02:21:30;1.08;;;1.08;;
5807;SDS011;2930;42.678;23.312;2023-05-07T02:23:56;1.15;;;1.15;;
5807;SDS011;2930;42.678;23.312;2023-05-07T02:26:22;1.27;;;1.17;;
5807;SDS011;2930;42.678;23.312;2023-05-07T02:28:48;0.88;;;0.88;;
5807;SDS011;2930;42.678;23.312;2023-05-07T02:31:13;1.17;;;1.17;;
5807;SDS011;2930;42.678;23.312;2023-05-07T02:33:39;1.20;;;1.10;;
5807;SDS011;2930;42.678;23.312;2023-05-07T02:36:08;0.82;;;0.82;;
5807;SDS011;2930;42.678;23.312;2023-05-07T02:38:35;1.08;;;1.08;;
5807;SDS011;2930;42.678;23.312;2023-05-07T02:41:00;0.95;;;0.95;;
5807;SDS011;2930;42.678;23.312;2023-05-07T02:43:26;1.17;;;1.17;;
5807;SDS011;2930;42.678;23.312;2023-05-07T02:46:02;0.95;;;0.93;;
5807;SDS011;2930;42.678;23.312;2023-05-07T02:48:29;1.58;;;1.30;;
5807;SDS011;2930;42.678;23.312;2023-05-07T02:50:55;1.35;;;1.10;;
5807;SDS011;2930;42.678;23.312;2023-05-07T02:53:21;0.93;;;0.93;;
5807;SDS011;2930;42.678;23.312;2023-05-07T02:55:47;1.30;;;1.20;;
5807;SDS011;2930;42.678;23.312;2023-05-07T02:58:12;1.52;;;1.20;;
5807;SDS011;2930;42.678;23.312;2023-05-07T03:00:38;1.17;;;1.13;;
5807;SDS011;2930;42.678;23.312;2023-05-07T03:03:03;2.05;;;1.10;;
5807;SDS011;2930;42.678;23.312;2023-05-07T03:05:29;3.60;;;1.20;;
5807;SDS011;2930;42.678;23.312;2023-05-07T03:07:55;1.60;;;1.50;;
5807;SDS011;2930;42.678;23.312;2023-05-07T03:10:20;2.13;;;1.30;;
5807;SDS011;2930;42.678;23.312;2023-05-07T03:12:46;1.90;;;1.30;;
5807;SDS011;2930;42.678;23.312;2023-05-07T03:15:12;1.15;;;1.15;;
5807;SDS011;2930;42.678;23.312;2023-05-07T03:17:37;2.35;;;1.90;;
5807;SDS011;2930;42.678;23.312;2023-05-07T03:20:04;0.95;;;0.93;;
5807;SDS011;2930;42.678;23.312;2023-05-07T03:22:30;2.13;;;1.45;;
5807;SDS011;2930;42.678;23.312;2023-05-07T03:24:56;1.55;;;1.20;;
5807;SDS011;2930;42.678;23.312;2023-05-07T03:27:21;3.25;;;1.77;;
5807;SDS011;2930;42.678;23.312;2023-05-07T03:29:47;1.63;;;1.52;;
5807;SDS011;2930;42.678;23.312;2023-05-07T03:32:13;2.63;;;1.50;;
5807;SDS011;2930;42.678;23.312;2023-05-07T03:34:39;1.60;;;1.23;;
5807;SDS011;2930;42.678;23.312;2023-05-07T03:37:05;1.83;;;1.60;;
5807;SDS011;2930;42.678;23.312;2023-05-07T03:39:30;2.30;;;1.45;;
5807;SDS011;2930;42.678;23.312;2023-05-07T03:41:57;1.45;;;1.45;;
5807;SDS011;2930;42.678;23.312;2023-05-07T03:44:23;1.30;;;1.30;;
5807;SDS011;2930;42.678;23.312;2023-05-07T03:46:48;1.48;;;1.38;;
5807;SDS011;2930;42.678;23.312;2023-05-07T03:49:14;1.63;;;1.52;;
5807;SDS011;2930;42.678;23.312;2023-05-07T03:51:40;1.50;;;1.40;;
5807;SDS011;2930;42.678;23.312;2023-05-07T03:54:06;1.52;;;1.42;;
5807;SDS011;2930;42.678;23.312;2023-05-07T03:56:32;2.53;;;1.58;;
5807;SDS011;2930;42.678;23.312;2023-05-07T03:58:57;1.73;;;1.63;;
5807;SDS011;2930;42.678;23.312;2023-05-07T04:01:23;0.98;;;0.98;;
5807;SDS011;2930;42.678;23.312;2023-05-07T04:03:49;1.30;;;1.20;;
5807;SDS011;2930;42.678;23.312;2023-05-07T04:06:15;1.25;;;1.25;;
5807;SDS011;2930;42.678;23.312;2023-05-07T04:08:42;1.60;;;1.50;;
5807;SDS011;2930;42.678;23.312;2023-05-07T04:11:08;1.55;;;1.45;;
5807;SDS011;2930;42.678;23.312;2023-05-07T04:13:33;1.17;;;1.17;;
5807;SDS011;2930;42.678;23.312;2023-05-07T04:16:00;2.85;;;1.52;;
5807;SDS011;2930;42.678;23.312;2023-05-07T04:18:27;1.67;;;1.58;;
5807;SDS011;2930;42.678;23.312;2023-05-07T04:20:53;1.10;;;1.10;;
5807;SDS011;2930;42.678;23.312;2023-05-07T04:23:19;2.67;;;1.92;;
5807;SDS011;2930;42.678;23.312;2023-05-07T04:25:44;1.60;;;1.50;;
5807;SDS011;2930;42.678;23.312;2023-05-07T04:28:10;1.77;;;1.67;;
5807;SDS011;2930;42.678;23.312;2023-05-07T04:30:36;1.52;;;1.52;;
5807;SDS011;2930;42.678;23.312;2023-05-07T04:33:02;1.98;;;1.88;;
5807;SDS011;2930;42.678;23.312;2023-05-07T04:35:28;2.08;;;2.05;;
5807;SDS011;2930;42.678;23.312;2023-05-07T04:37:53;2.03;;;1.67;;
5807;SDS011;2930;42.678;23.312;2023-05-07T04:40:19;2.05;;;1.73;;
5807;SDS011;2930;42.678;23.312;2023-05-07T04:42:45;2.17;;;1.73;;
5807;SDS011;2930;42.678;23.312;2023-05-07T04:45:10;1.48;;;1.40;;
5807;SDS011;2930;42.678;23.312;2023-05-07T04:47:38;2.05;;;1.92;;
5807;SDS011;2930;42.678;23.312;2023-05-07T04:50:04;1.85;;;1.73;;
5807;SDS011;2930;42.678;23.312;2023-05-07T04:52:31;2.70;;;1.70;;
5807;SDS011;2930;42.678;23.312;2023-05-07T04:54:58;1.67;;;1.60;;
5807;SDS011;2930;42.678;23.312;2023-05-07T04:57:25;1.85;;;1.75;;
5807;SDS011;2930;42.678;23.312;2023-05-07T04:59:51;2.00;;;1.83;;
5807;SDS011;2930;42.678;23.312;2023-05-07T05:02:17;1.50;;;1.50;;
5807;SDS011;2930;42.678;23.312;2023-05-07T05:04:43;1.52;;;1.52;;
5807;SDS011;2930;42.678;23.312;2023-05-07T05:07:08;1.95;;;1.40;;
5807;SDS011;2930;42.678;23.312;2023-05-07T05:09:34;1.33;;;1.23;;
5807;SDS011;2930;42.678;23.312;2023-05-07T05:11:59;1.83;;;1.70;;
5807;SDS011;2930;42.678;23.312;2023-05-07T05:14:25;3.58;;;1.48;;
5807;SDS011;2930;42.678;23.312;2023-05-07T05:16:51;1.30;;;1.20;;
5807;SDS011;2930;42.678;23.312;2023-05-07T05:19:16;1.70;;;1.60;;
5807;SDS011;2930;42.678;23.312;2023-05-07T05:21:42;1.63;;;1.52;;
5807;SDS011;2930;42.678;23.312;2023-05-07T05:24:08;1.60;;;1.25;;
5807;SDS011;2930;42.678;23.312;2023-05-07T05:26:34;2.33;;;1.35;;
5807;SDS011;2930;42.678;23.312;2023-05-07T05:28:59;1.70;;;1.63;;
5807;SDS011;2930;42.678;23.312;2023-05-07T05:31:25;1.75;;;1.60;;
5807;SDS011;2930;42.678;23.312;2023-05-07T05:33:51;1.02;;;1.02;;
5807;SDS011;2930;42.678;23.312;2023-05-07T05:36:17;1.23;;;1.15;;
5807;SDS011;2930;42.678;23.312;2023-05-07T05:38:42;1.48;;;1.38;;
5807;SDS011;2930;42.678;23.312;2023-05-07T05:41:09;1.60;;;1.55;;
5807;SDS011;2930;42.678;23.312;2023-05-07T05:43:35;3.13;;;1.48;;
5807;SDS011;2930;42.678;23.312;2023-05-07T05:46:00;1.50;;;1.40;;
5807;SDS011;2930;42.678;23.312;2023-05-07T05:48:26;1.42;;;1.33;;
5807;SDS011;2930;42.678;23.312;2023-05-07T05:50:53;1.77;;;1.67;;
5807;SDS011;2930;42.678;23.312;2023-05-07T05:53:19;2.47;;;1.95;;
5807;SDS011;2930;42.678;23.312;2023-05-07T05:55:45;1.95;;;1.83;;
5807;SDS011;2930;42.678;23.312;2023-05-07T05:58:12;2.40;;;2.22;;
5807;SDS011;2930;42.678;23.312;2023-05-07T06:00:38;3.75;;;1.75;;
5807;SDS011;2930;42.678;23.312;2023-05-07T06:03:03;2.38;;;2.20;;
5807;SDS011;2930;42.678;23.312;2023-05-07T06:05:29;1.85;;;1.75;;
5807;SDS011;2930;42.678;23.312;2023-05-07T06:07:55;2.42;;;2.22;;
5807;SDS011;2930;42.678;23.312;2023-05-07T06:10:21;2.33;;;2.15;;
5807;SDS011;2930;42.678;23.312;2023-05-07T06:12:46;2.13;;;1.45;;
5807;SDS011;2930;42.678;23.312;2023-05-07T06:15:12;3.13;;;1.98;;
5807;SDS011;2930;42.678;23.312;2023-05-07T06:17:38;1.85;;;1.75;;
5807;SDS011;2930;42.678;23.312;2023-05-07T06:20:03;3.33;;;1.98;;
5807;SDS011;2930;42.678;23.312;2023-05-07T06:22:29;1.88;;;1.77;;
5807;SDS011;2930;42.678;23.312;2023-05-07T06:24:55;2.22;;;2.13;;
5807;SDS011;2930;42.678;23.312;2023-05-07T06:27:21;2.17;;;1.85;;
5807;SDS011;2930;42.678;23.312;2023-05-07T06:29:47;2.33;;;2.03;;
5807;SDS011;2930;42.678;23.312;2023-05-07T06:32:13;3.42;;;1.83;;
5807;SDS011;2930;42.678;23.312;2023-05-07T06:34:40;2.60;;;2.47;;
5807;SDS011;2930;42.678;23.312;2023-05-07T06:37:06;2.95;;;2.38;;
5807;SDS011;2930;42.678;23.312;2023-05-07T06:39:32;2.35;;;2.15;;
5807;SDS011;2930;42.678;23.312;2023-05-07T06:41:59;2.00;;;1.90;;
5807;SDS011;2930;42.678;23.312;2023-05-07T06:44:26;3.38;;;2.40;;
5807;SDS011;2930;42.678;23.312;2023-05-07T06:46:52;3.08;;;2.20;;
5807;SDS011;2930;42.678;23.312;2023-05-07T06:49:17;2.50;;;2.33;;
5807;SDS011;2930;42.678;23.312;2023-05-07T06:51:43;2.53;;;2.25;;
5807;SDS011;2930;42.678;23.312;2023-05-07T06:54:09;2.22;;;1.98;;
5807;SDS011;2930;42.678;23.312;2023-05-07T06:56:34;2.28;;;2.17;;
5807;SDS011;2930;42.678;23.312;2023-05-07T06:59:01;2.45;;;2.35;;
5807;SDS011;2930;42.678;23.312;2023-05-07T07:01:27;2.10;;;2.00;;
5807;SDS011;2930;42.678;23.312;2023-05-07T07:03:53;2.50;;;2.28;;
5807;SDS011;2930;42.678;23.312;2023-05-07T07:06:19;2.35;;;2.17;;
5807;SDS011;2930;42.678;23.312;2023-05-07T07:08:45;2.63;;;2.42;;
5807;SDS011;2930;42.678;23.312;2023-05-07T07:11:10;2.25;;;2.13;;
5807;SDS011;2930;42.678;23.312;2023-05-07T07:13:36;4.07;;;2.38;;
5807;SDS011;2930;42.678;23.312;2023-05-07T07:16:02;2.28;;;2.08;;
5807;SDS011;2930;42.678;23.312;2023-05-07T07:18:28;2.50;;;2.17;;
5807;SDS011;2930;42.678;23.312;2023-05-07T07:20:53;2.55;;;2.35;;
5807;SDS011;2930;42.678;23.312;2023-05-07T07:23:19;2.22;;;2.13;;
5807;SDS011;2930;42.678;23.312;2023-05-07T07:25:45;2.28;;;2.15;;
5807;SDS011;2930;42.678;23.312;2023-05-07T07:28:11;2.92;;;2.72;;
5807;SDS011;2930;42.678;23.312;2023-05-07T07:30:37;5.22;;;2.80;;
5807;SDS011;2930;42.678;23.312;2023-05-07T07:33:03;2.60;;;2.40;;
5807;SDS011;2930;42.678;23.312;2023-05-07T07:35:30;3.08;;;2.88;;
5807;SDS011;2930;42.678;23.312;2023-05-07T07:37:58;2.88;;;2.70;;
5807;SDS011;2930;42.678;23.312;2023-05-07T07:40:24;3.30;;;2.97;;
5807;SDS011;2930;42.678;23.312;2023-05-07T07:42:51;2.50;;;2.40;;
5807;SDS011;2930;42.678;23.312;2023-05-07T07:45:17;2.72;;;2.53;;
5807;SDS011;2930;42.678;23.312;2023-05-07T07:47:43;3.22;;;2.92;;
5807;SDS011;2930;42.678;23.312;2023-05-07T07:50:08;2.45;;;2.13;;
5807;SDS011;2930;42.678;23.312;2023-05-07T07:52:34;3.92;;;2.40;;
5807;SDS011;2930;42.678;23.312;2023-05-07T07:55:00;2.47;;;2.35;;
5807;SDS011;2930;42.678;23.312;2023-05-07T07:57:26;3.67;;;3.38;;
5807;SDS011;2930;42.678;23.312;2023-05-07T07:59:52;2.88;;;2.65;;
5807;SDS011;2930;42.678;23.312;2023-05-07T08:02:18;8.43;;;2.92;;
5807;SDS011;2930;42.678;23.312;2023-05-07T08:04:43;2.58;;;2.40;;
5807;SDS011;2930;42.678;23.312;2023-05-07T08:07:10;2.40;;;2.22;;
5807;SDS011;2930;42.678;23.312;2023-05-07T08:09:36;4.95;;;3.03;;
5807;SDS011;2930;42.678;23.312;2023-05-07T08:12:03;4.18;;;2.83;;
5807;SDS011;2930;42.678;23.312;2023-05-07T08:14:29;2.75;;;2.50;;
5807;SDS011;2930;42.678;23.312;2023-05-07T08:16:55;3.45;;;3.15;;
5807;SDS011;2930;42.678;23.312;2023-05-07T08:19:21;4.38;;;3.10;;
5807;SDS011;2930;42.678;23.312;2023-05-07T08:21:47;3.25;;;3.05;;
5807;SDS011;2930;42.678;23.312;2023-05-07T08:24:13;3.03;;;2.83;;
5807;SDS011;2930;42.678;23.312;2023-05-07T08:26:45;2.90;;;2.70;;
5807;SDS011;2930;42.678;23.312;2023-05-07T08:29:10;2.30;;;2.15;;
5807;SDS011;2930;42.678;23.312;2023-05-07T08:31:36;2.92;;;2.83;;
5807;SDS011;2930;42.678;23.312;2023-05-07T08:34:03;2.97;;;2.88;;
5807;SDS011;2930;42.678;23.312;2023-05-07T08:36:30;2.85;;;2.63;;
5807;SDS011;2930;42.678;23.312;2023-05-07T08:38:55;2.47;;;2.42;;
5807;SDS011;2930;42.678;23.312;2023-05-07T08:41:21;2.80;;;2.60;;
5807;SDS011;2930;42.678;23.312;2023-05-07T08:43:50;3.00;;;2.70;;
5807;SDS011;2930;42.678;23.312;2023-05-07T08:46:20;2.95;;;2.67;;
5807;SDS011;2930;42.678;23.312;2023-05-07T08:48:49;2.35;;;2.20;;
5807;SDS011;2930;42.678;23.312;2023-05-07T08:51:16;2.35;;;2.25;;
5807;SDS011;2930;42.678;23.312;2023-05-07T08:53:43;3.05;;;2.85;;
5807;SDS011;2930;42.678;23.312;2023-05-07T08:56:10;5.80;;;3.45;;
5807;SDS011;2930;42.678;23.312;2023-05-07T08:58:37;3.13;;;2.92;;
5807;SDS011;2930;42.678;23.312;2023-05-07T09:01:03;2.60;;;2.40;;
5807;SDS011;2930;42.678;23.312;2023-05-07T09:03:36;3.33;;;2.58;;
5807;SDS011;2930;42.678;23.312;2023-05-07T09:06:04;2.30;;;2.20;;
5807;SDS011;2930;42.678;23.312;2023-05-07T09:08:29;2.30;;;2.20;;
5807;SDS011;2930;42.678;23.312;2023-05-07T09:10:57;2.70;;;2.60;;
5807;SDS011;2930;42.678;23.312;2023-05-07T09:13:23;4.30;;;2.65;;
5807;SDS011;2930;42.678;23.312;2023-05-07T09:15:48;2.63;;;2.50;;
5807;SDS011;2930;42.678;23.312;2023-05-07T09:18:14;2.50;;;2.40;;
5807;SDS011;2930;42.678;23.312;2023-05-07T09:20:40;2.50;;;2.38;;
5807;SDS011;2930;42.678;23.312;2023-05-07T09:23:06;3.25;;;3.03;;
5807;SDS011;2930;42.678;23.312;2023-05-07T09:25:33;2.60;;;2.45;;
5807;SDS011;2930;42.678;23.312;2023-05-07T09:28:00;2.97;;;2.13;;
5807;SDS011;2930;42.678;23.312;2023-05-07T09:30:29;2.30;;;2.20;;
5807;SDS011;2930;42.678;23.312;2023-05-07T09:32:56;2.20;;;2.10;;
5807;SDS011;2930;42.678;23.312;2023-05-07T09:35:26;4.63;;;2.30;;
5807;SDS011;2930;42.678;23.312;2023-05-07T09:37:59;2.47;;;2.30;;
5807;SDS011;2930;42.678;23.312;2023-05-07T09:40:29;2.35;;;2.25;;
5807;SDS011;2930;42.678;23.312;2023-05-07T09:42:56;2.47;;;2.28;;
5807;SDS011;2930;42.678;23.312;2023-05-07T09:45:33;4.03;;;2.53;;
5807;SDS011;2930;42.678;23.312;2023-05-07T09:47:59;2.63;;;1.95;;
5807;SDS011;2930;42.678;23.312;2023-05-07T09:50:30;2.05;;;2.05;;
5807;SDS011;2930;42.678;23.312;2023-05-07T09:53:01;1.70;;;1.60;;
5807;SDS011;2930;42.678;23.312;2023-05-07T09:55:28;2.08;;;1.92;;
5807;SDS011;2930;42.678;23.312;2023-05-07T09:57:53;1.92;;;1.63;;
5807;SDS011;2930;42.678;23.312;2023-05-07T10:00:20;1.63;;;1.58;;
5807;SDS011;2930;42.678;23.312;2023-05-07T10:02:51;3.58;;;1.58;;
5807;SDS011;2930;42.678;23.312;2023-05-07T10:05:17;2.20;;;2.10;;
5807;SDS011;2930;42.678;23.312;2023-05-07T10:07:45;2.05;;;2.05;;
5807;SDS011;2930;42.678;23.312;2023-05-07T10:10:11;1.92;;;1.83;;
5807;SDS011;2930;42.678;23.312;2023-05-07T10:12:38;1.40;;;1.40;;
5807;SDS011;2930;42.678;23.312;2023-05-07T10:15:08;3.10;;;1.85;;
5807;SDS011;2930;42.678;23.312;2023-05-07T10:17:36;2.20;;;2.10;;
5807;SDS011;2930;42.678;23.312;2023-05-07T10:20:03;2.05;;;2.00;;
5807;SDS011;2930;42.678;23.312;2023-05-07T10:22:34;1.65;;;1.55;;
5807;SDS011;2930;42.678;23.312;2023-05-07T10:25:29;1.63;;;1.63;;
5807;SDS011;2930;42.678;23.312;2023-05-07T10:27:57;1.98;;;1.98;;
5807;SDS011;2930;42.678;23.312;2023-05-07T10:30:38;1.88;;;1.88;;
5807;SDS011;2930;42.678;23.312;2023-05-07T10:33:11;1.85;;;1.85;;
5807;SDS011;2930;42.678;23.312;2023-05-07T10:35:40;1.77;;;1.70;;
5807;SDS011;2930;42.678;23.312;2023-05-07T10:38:08;2.10;;;1.98;;
5807;SDS011;2930;42.678;23.312;2023-05-07T10:40:34;3.30;;;2.03;;
5807;SDS011;2930;42.678;23.312;2023-05-07T10:43:01;1.90;;;1.80;;
5807;SDS011;2930;42.678;23.312;2023-05-07T10:45:30;2.03;;;2.03;;
5807;SDS011;2930;42.678;23.312;2023-05-07T10:50:48;1.80;;;1.80;;
5807;SDS011;2930;42.678;23.312;2023-05-07T10:55:42;1.80;;;1.80;;
5807;SDS011;2930;42.678;23.312;2023-05-07T10:58:27;2.00;;;1.95;;
5807;SDS011;2930;42.678;23.312;2023-05-07T11:01:00;2.28;;;2.17;;
5807;SDS011;2930;42.678;23.312;2023-05-07T11:03:26;1.60;;;1.60;;
5807;SDS011;2930;42.678;23.312;2023-05-07T11:14:56;2.47;;;2.40;;
5807;SDS011;2930;42.678;23.312;2023-05-07T11:17:16;2.35;;;1.90;;
5807;SDS011;2930;42.678;23.312;2023-05-07T11:19:49;2.42;;;2.35;;
5807;SDS011;2930;42.678;23.312;2023-05-07T11:24:58;1.83;;;1.83;;
5807;SDS011;2930;42.678;23.312;2023-05-07T11:27:25;2.03;;;2.00;;
5807;SDS011;2930;42.678;23.312;2023-05-07T11:29:51;1.90;;;1.75;;
5807;SDS011;2930;42.678;23.312;2023-05-07T11:32:23;1.88;;;1.88;;
5807;SDS011;2930;42.678;23.312;2023-05-07T11:34:54;2.60;;;1.85;;
5807;SDS011;2930;42.678;23.312;2023-05-07T11:37:21;1.88;;;1.88;;
5807;SDS011;2930;42.678;23.312;2023-05-07T11:39:47;2.03;;;2.03;;
5807;SDS011;2930;42.678;23.312;2023-05-07T11:42:29;2.53;;;2.42;;
5807;SDS011;2930;42.678;23.312;2023-05-07T11:44:57;2.28;;;2.05;;
5807;SDS011;2930;42.678;23.312;2023-05-07T11:47:23;2.10;;;2.00;;
5807;SDS011;2930;42.678;23.312;2023-05-07T11:49:49;2.08;;;1.98;;
5807;SDS011;2930;42.678;23.312;2023-05-07T11:52:17;1.90;;;1.80;;
5807;SDS011;2930;42.678;23.312;2023-05-07T11:57:20;2.15;;;2.13;;
5807;SDS011;2930;42.678;23.312;2023-05-07T11:59:53;2.33;;;2.33;;
5807;SDS011;2930;42.678;23.312;2023-05-07T12:02:19;2.20;;;2.05;;
5807;SDS011;2930;42.678;23.312;2023-05-07T12:04:45;2.20;;;2.08;;
5807;SDS011;2930;42.678;23.312;2023-05-07T12:07:11;1.90;;;1.90;;
5807;SDS011;2930;42.678;23.312;2023-05-07T12:09:38;1.80;;;1.80;;
5807;SDS011;2930;42.678;23.312;2023-05-07T12:12:04;1.85;;;1.85;;
5807;SDS011;2930;42.678;23.312;2023-05-07T12:14:30;1.90;;;1.80;;
5807;SDS011;2930;42.678;23.312;2023-05-07T12:16:57;2.03;;;1.92;;
5807;SDS011;2930;42.678;23.312;2023-05-07T12:19:28;2.20;;;2.10;;
5807;SDS011;2930;42.678;23.312;2023-05-07T12:21:54;2.05;;;1.85;;
5807;SDS011;2930;42.678;23.312;2023-05-07T12:24:21;1.80;;;1.80;;
5807;SDS011;2930;42.678;23.312;2023-05-07T12:26:47;1.35;;;1.35;;
5807;SDS011;2930;42.678;23.312;2023-05-07T12:29:13;1.65;;;1.52;;
5807;SDS011;2930;42.678;23.312;2023-05-07T12:31:42;1.17;;;1.17;;
5807;SDS011;2930;42.678;23.312;2023-05-07T12:34:08;1.30;;;1.30;;
5807;SDS011;2930;42.678;23.312;2023-05-07T12:36:36;1.25;;;1.25;;
5807;SDS011;2930;42.678;23.312;2023-05-07T12:39:04;1.70;;;1.60;;
5807;SDS011;2930;42.678;23.312;2023-05-07T12:41:36;1.35;;;1.35;;
5807;SDS011;2930;42.678;23.312;2023-05-07T12:44:18;1.35;;;1.35;;
5807;SDS011;2930;42.678;23.312;2023-05-07T12:46:44;1.30;;;1.30;;
5807;SDS011;2930;42.678;23.312;2023-05-07T12:49:11;1.00;;;1.00;;
5807;SDS011;2930;42.678;23.312;2023-05-07T12:51:37;1.63;;;1.45;;
5807;SDS011;2930;42.678;23.312;2023-05-07T12:54:03;1.63;;;1.42;;
5807;SDS011;2930;42.678;23.312;2023-05-07T12:56:30;1.25;;;1.25;;
5807;SDS011;2930;42.678;23.312;2023-05-07T12:58:59;1.30;;;1.30;;
5807;SDS011;2930;42.678;23.312;2023-05-07T13:01:28;1.30;;;1.30;;
5807;SDS011;2930;42.678;23.312;2023-05-07T13:03:55;1.20;;;1.20;;
5807;SDS011;2930;42.678;23.312;2023-05-07T13:06:20;1.35;;;1.35;;
5807;SDS011;2930;42.678;23.312;2023-05-07T13:08:46;1.23;;;1.23;;
5807;SDS011;2930;42.678;23.312;2023-05-07T13:11:12;1.20;;;1.20;;
5807;SDS011;2930;42.678;23.312;2023-05-07T13:13:39;1.25;;;1.25;;
5807;SDS011;2930;42.678;23.312;2023-05-07T13:16:05;1.20;;;1.20;;
5807;SDS011;2930;42.678;23.312;2023-05-07T13:18:33;1.33;;;1.23;;
5807;SDS011;2930;42.678;23.312;2023-05-07T13:20:59;1.20;;;1.20;;
5807;SDS011;2930;42.678;23.312;2023-05-07T13:23:25;3.13;;;1.60;;
5807;SDS011;2930;42.678;23.312;2023-05-07T13:25:52;1.48;;;1.23;;
5807;SDS011;2930;42.678;23.312;2023-05-07T13:28:21;1.20;;;1.20;;
5807;SDS011;2930;42.678;23.312;2023-05-07T13:30:47;1.67;;;1.60;;
5807;SDS011;2930;42.678;23.312;2023-05-07T13:33:13;7.57;;;1.48;;
5807;SDS011;2930;42.678;23.312;2023-05-07T13:35:40;1.50;;;1.38;;
5807;SDS011;2930;42.678;23.312;2023-05-07T13:38:06;1.25;;;1.25;;
5807;SDS011;2930;42.678;23.312;2023-05-07T13:40:32;2.15;;;1.52;;
5807;SDS011;2930;42.678;23.312;2023-05-07T13:42:58;1.23;;;1.23;;
5807;SDS011;2930;42.678;23.312;2023-05-07T13:45:26;1.33;;;1.33;;
5807;SDS011;2930;42.678;23.312;2023-05-07T13:47:54;1.40;;;1.40;;
5807;SDS011;2930;42.678;23.312;2023-05-07T13:50:20;1.70;;;1.63;;
5807;SDS011;2930;42.678;23.312;2023-05-07T13:52:46;1.70;;;1.60;;
5807;SDS011;2930;42.678;23.312;2023-05-07T13:55:18;1.60;;;1.60;;
5807;SDS011;2930;42.678;23.312;2023-05-07T13:57:54;1.40;;;1.40;;
5807;SDS011;2930;42.678;23.312;2023-05-07T14:00:25;1.55;;;1.55;;
5807;SDS011;2930;42.678;23.312;2023-05-07T14:02:51;1.40;;;1.30;;
5807;SDS011;2930;42.678;23.312;2023-05-07T14:05:17;1.50;;;1.40;;
5807;SDS011;2930;42.678;23.312;2023-05-07T14:07:43;1.40;;;1.40;;
5807;SDS011;2930;42.678;23.312;2023-05-07T14:10:09;1.33;;;1.33;;
5807;SDS011;2930;42.678;23.312;2023-05-07T14:12:36;1.38;;;1.35;;
5807;SDS011;2930;42.678;23.312;2023-05-07T14:15:01;1.40;;;1.35;;
5807;SDS011;2930;42.678;23.312;2023-05-07T14:17:27;1.48;;;1.48;;
5807;SDS011;2930;42.678;23.312;2023-05-07T14:19:53;1.23;;;1.23;;
5807;SDS011;2930;42.678;23.312;2023-05-07T14:22:20;1.67;;;1.67;;
5807;SDS011;2930;42.678;23.312;2023-05-07T14:24:46;1.50;;;1.40;;
5807;SDS011;2930;42.678;23.312;2023-05-07T14:27:12;1.13;;;1.13;;
5807;SDS011;2930;42.678;23.312;2023-05-07T14:29:38;1.73;;;1.63;;
5807;SDS011;2930;42.678;23.312;2023-05-07T14:32:03;5.00;;;1.52;;
5807;SDS011;2930;42.678;23.312;2023-05-07T14:34:29;1.77;;;1.67;;
5807;SDS011;2930;42.678;23.312;2023-05-07T14:36:56;1.73;;;1.73;;
5807;SDS011;2930;42.678;23.312;2023-05-07T14:39:22;1.10;;;1.10;;
5807;SDS011;2930;42.678;23.312;2023-05-07T14:41:48;1.58;;;1.58;;
5807;SDS011;2930;42.678;23.312;2023-05-07T14:44:14;1.70;;;1.70;;
5807;SDS011;2930;42.678;23.312;2023-05-07T14:46:39;1.33;;;1.33;;
5807;SDS011;2930;42.678;23.312;2023-05-07T14:49:05;1.65;;;1.65;;
5807;SDS011;2930;42.678;23.312;2023-05-07T14:51:32;1.42;;;1.42;;
5807;SDS011;2930;42.678;23.312;2023-05-07T14:53:58;1.45;;;1.45;;
5807;SDS011;2930;42.678;23.312;2023-05-07T14:56:23;1.33;;;1.30;;
5807;SDS011;2930;42.678;23.312;2023-05-07T14:58:49;1.63;;;1.63;;
5807;SDS011;2930;42.678;23.312;2023-05-07T15:01:15;1.50;;;1.50;;
5807;SDS011;2930;42.678;23.312;2023-05-07T15:03:41;1.60;;;1.60;;
5807;SDS011;2930;42.678;23.312;2023-05-07T15:06:07;1.70;;;1.60;;
5807;SDS011;2930;42.678;23.312;2023-05-07T15:08:32;1.30;;;1.30;;
5807;SDS011;2930;42.678;23.312;2023-05-07T15:10:58;1.48;;;1.40;;
5807;SDS011;2930;42.678;23.312;2023-05-07T15:13:24;1.52;;;1.50;;
5807;SDS011;2930;42.678;23.312;2023-05-07T15:15:49;1.63;;;1.60;;
5807;SDS011;2930;42.678;23.312;2023-05-07T15:18:15;1.50;;;1.50;;